Forseti — V2PV4 — position and weather

sailwx.info

Track history (hours):
 
Tides and Currents Weather Stations Pressure Air Temp Water Temp Dewpoint Dewpoint Depression Visibility Wind Speed Wind Dir Waves Ship Positions

Forseti

Last reported at 2016-Sep-26 11:31 UTC. Time now 2016-Sep-27 05:19 UTC.
Position N 55°58' E 014°53'.

Length 85 m; draft 4.2 m.

Type: Cargo ship. MMSI: 304010297.

Date/timePositionNaut miles runAvg speedWind from/ knotsBaromVisibWave heightAir tempDewpointWater temp
2016-Sep-26 11:31N 55°58' E 014°53'11 3.7
2016-Sep-26 08:33N 56°02' E 014°35'0 0.0
2016-Sep-26 02:27N 56°02' E 014°35'0 0.0
2016-Sep-26 01:20N 56°02' E 014°35'0 0.0
2016-Sep-26 00:27N 56°02' E 014°35'0 0.0
2016-Sep-25 21:31N 56°02' E 014°35'0 0.0
2016-Sep-25 12:10N 56°02' E 014°35'0 0.0
2016-Sep-25 10:08N 56°02' E 014°35'0 0.0
2016-Sep-25 07:28N 56°02' E 014°35'0 0.0
2016-Sep-25 00:32N 56°02' E 014°35'0 0.0
2016-Sep-24 22:33N 56°02' E 014°35'0 0.0
2016-Sep-24 21:17N 56°02' E 014°35'0 0.0
2016-Sep-24 19:24N 56°02' E 014°35'0 0.0
2016-Sep-24 18:26N 56°02' E 014°35'0 0.0
2016-Sep-24 16:24N 56°02' E 014°35'15 0.7
2016-Sep-23 17:33N 55°47' E 014°37'10 9.9
2016-Sep-23 16:33N 55°37' E 014°38'1010.1
2016-Sep-23 15:33N 55°27' E 014°38'2010.1
2016-Sep-23 13:33N 55°11' E 014°18'4210.6
2016-Sep-23 09:33N 55°14' E 013°04'23 7.8
2016-Sep-23 06:33N 55°34' E 012°42'2110.3
2016-Sep-23 04:33N 55°54' E 012°38'9 9.4
2016-Sep-23 03:33N 56°04' E 012°37'10 9.9
2016-Sep-23 02:33N 56°10' E 012°23'1010.4
2016-Sep-23 01:33N 56°16' E 012°07'2010.1
2016-Sep-22 23:33N 56°35' E 011°56'3210.5
2016-Sep-22 20:33N 57°05' E 011°39'299 8.6
2016-Sep-21 09:33N 53°49' E 004°59'150 9.4
2016-Sep-20 17:33N 51°26' E 003°40'17 5.5
2016-Sep-20 14:33N 51°11' E 003°48'0 0.0
2016-Sep-20 13:33N 51°11' E 003°48'0 0.0
2016-Sep-20 10:33N 51°11' E 003°48'0 0.0
2016-Sep-20 08:33N 51°11' E 003°48'0 0.0
2016-Sep-20 07:33N 51°11' E 003°48'0 0.0
2016-Sep-20 06:33N 51°11' E 003°48'0 0.0
2016-Sep-20 02:34N 51°11' E 003°48'0 0.0
2016-Sep-19 23:33N 51°11' E 003°48'0 0.0
2016-Sep-19 19:33N 51°11' E 003°48'0 0.0
2016-Sep-19 18:33N 51°11' E 003°48'0 0.0
2016-Sep-19 16:34N 51°11' E 003°48'0 0.0
2016-Sep-19 14:34N 51°11' E 003°48'0 0.0
2016-Sep-19 13:34N 51°11' E 003°48'0 0.0
2016-Sep-19 12:34N 51°11' E 003°48'0 0.0
2016-Sep-19 11:34N 51°11' E 003°48'1 0.7
2016-Sep-19 09:31N 51°09' E 003°47'0 0.0
2016-Sep-19 07:31N 51°09' E 003°47'0 0.0
2016-Sep-19 06:31N 51°09' E 003°47'0 0.0
2016-Sep-19 03:31N 51°09' E 003°47'0 0.0
2016-Sep-19 02:28N 51°09' E 003°47'0 0.0
2016-Sep-19 00:28N 51°09' E 003°47'0 0.0
2016-Sep-18 19:31N 51°09' E 003°47'0 0.0
2016-Sep-18 15:31N 51°09' E 003°47'0 0.0
2016-Sep-18 14:28N 51°09' E 003°47'0 0.0
2016-Sep-18 10:33N 51°09' E 003°47'0 0.0
2016-Sep-18 09:33N 51°09' E 003°47'0 0.0
2016-Sep-18 02:33N 51°09' E 003°47'0 0.0
2016-Sep-18 01:27N 51°09' E 003°47'0 0.0
2016-Sep-18 00:30N 51°09' E 003°47'0 0.0
2016-Sep-17 22:33N 51°09' E 003°47'0 0.0
2016-Sep-17 21:33N 51°09' E 003°47'0 0.0
2016-Sep-17 20:33N 51°09' E 003°47'0 0.0
2016-Sep-17 19:15N 51°09' E 003°47'0 0.0
2016-Sep-17 13:33N 51°09' E 003°47'0 0.0
2016-Sep-17 12:33N 51°09' E 003°47'0 0.0
2016-Sep-17 10:33N 51°09' E 003°47'0 0.0
2016-Sep-17 09:33N 51°09' E 003°47'0 0.0
2016-Sep-17 08:33N 51°09' E 003°47'0 0.0
2016-Sep-17 07:27N 51°09' E 003°47'0 0.0
2016-Sep-17 05:27N 51°09' E 003°47'0 0.0
2016-Sep-17 04:33N 51°09' E 003°47'0 0.0
2016-Sep-17 00:33N 51°09' E 003°47'18 2.6
2016-Sep-16 17:33N 51°25' E 003°32'13 6.7
2016-Sep-16 15:33N 51°23' E 003°11'29 9.5
2016-Sep-16 12:33N 51°20' E 002°25'  
Track history (hours):
 
Tides and Currents Weather Stations Pressure Air Temp Water Temp Dewpoint Dewpoint Depression Visibility Wind Speed Wind Dir Waves Ship Positions

Forseti

Last reported at 2016-Sep-26 11:31 UTC. Time now 2016-Sep-27 05:19 UTC.
Position N 55°58' E 014°53'.

Length 85 m; draft 4.2 m.

Type: Cargo ship. MMSI: 304010297.

Date/timePositionNaut miles runAvg speedWind from/ knotsBaromVisibWave heightAir tempDewpointWater temp
2016-Sep-26 11:31N 55°58' E 014°53'11 3.7
2016-Sep-26 08:33N 56°02' E 014°35'0 0.0
2016-Sep-26 02:27N 56°02' E 014°35'0 0.0
2016-Sep-26 01:20N 56°02' E 014°35'0 0.0
2016-Sep-26 00:27N 56°02' E 014°35'0 0.0
2016-Sep-25 21:31N 56°02' E 014°35'0 0.0
2016-Sep-25 12:10N 56°02' E 014°35'0 0.0
2016-Sep-25 10:08N 56°02' E 014°35'0 0.0
2016-Sep-25 07:28N 56°02' E 014°35'0 0.0
2016-Sep-25 00:32N 56°02' E 014°35'0 0.0
2016-Sep-24 22:33N 56°02' E 014°35'0 0.0
2016-Sep-24 21:17N 56°02' E 014°35'0 0.0
2016-Sep-24 19:24N 56°02' E 014°35'0 0.0
2016-Sep-24 18:26N 56°02' E 014°35'0 0.0
2016-Sep-24 16:24N 56°02' E 014°35'15 0.7
2016-Sep-23 17:33N 55°47' E 014°37'10 9.9
2016-Sep-23 16:33N 55°37' E 014°38'1010.1
2016-Sep-23 15:33N 55°27' E 014°38'2010.1
2016-Sep-23 13:33N 55°11' E 014°18'4210.6
2016-Sep-23 09:33N 55°14' E 013°04'23 7.8
2016-Sep-23 06:33N 55°34' E 012°42'2110.3
2016-Sep-23 04:33N 55°54' E 012°38'9 9.4
2016-Sep-23 03:33N 56°04' E 012°37'10 9.9
2016-Sep-23 02:33N 56°10' E 012°23'1010.4
2016-Sep-23 01:33N 56°16' E 012°07'2010.1
2016-Sep-22 23:33N 56°35' E 011°56'3210.5
2016-Sep-22 20:33N 57°05' E 011°39'299 8.6
2016-Sep-21 09:33N 53°49' E 004°59'150 9.4
2016-Sep-20 17:33N 51°26' E 003°40'17 5.5
2016-Sep-20 14:33N 51°11' E 003°48'0 0.0
2016-Sep-20 13:33N 51°11' E 003°48'0 0.0
2016-Sep-20 10:33N 51°11' E 003°48'0 0.0
2016-Sep-20 08:33N 51°11' E 003°48'0 0.0
2016-Sep-20 07:33N 51°11' E 003°48'0 0.0
2016-Sep-20 06:33N 51°11' E 003°48'0 0.0
2016-Sep-20 02:34N 51°11' E 003°48'0 0.0
2016-Sep-19 23:33N 51°11' E 003°48'0 0.0
2016-Sep-19 19:33N 51°11' E 003°48'0 0.0
2016-Sep-19 18:33N 51°11' E 003°48'0 0.0
2016-Sep-19 16:34N 51°11' E 003°48'0 0.0
2016-Sep-19 14:34N 51°11' E 003°48'0 0.0
2016-Sep-19 13:34N 51°11' E 003°48'0 0.0
2016-Sep-19 12:34N 51°11' E 003°48'0 0.0
2016-Sep-19 11:34N 51°11' E 003°48'1 0.7
2016-Sep-19 09:31N 51°09' E 003°47'0 0.0
2016-Sep-19 07:31N 51°09' E 003°47'0 0.0
2016-Sep-19 06:31N 51°09' E 003°47'0 0.0
2016-Sep-19 03:31N 51°09' E 003°47'0 0.0
2016-Sep-19 02:28N 51°09' E 003°47'0 0.0
2016-Sep-19 00:28N 51°09' E 003°47'0 0.0
2016-Sep-18 19:31N 51°09' E 003°47'0 0.0
2016-Sep-18 15:31N 51°09' E 003°47'0 0.0
2016-Sep-18 14:28N 51°09' E 003°47'0 0.0
2016-Sep-18 10:33N 51°09' E 003°47'0 0.0
2016-Sep-18 09:33N 51°09' E 003°47'0 0.0
2016-Sep-18 02:33N 51°09' E 003°47'0 0.0
2016-Sep-18 01:27N 51°09' E 003°47'0 0.0
2016-Sep-18 00:30N 51°09' E 003°47'0 0.0
2016-Sep-17 22:33N 51°09' E 003°47'0 0.0
2016-Sep-17 21:33N 51°09' E 003°47'0 0.0
2016-Sep-17 20:33N 51°09' E 003°47'0 0.0
2016-Sep-17 19:15N 51°09' E 003°47'0 0.0
2016-Sep-17 13:33N 51°09' E 003°47'0 0.0
2016-Sep-17 12:33N 51°09' E 003°47'0 0.0
2016-Sep-17 10:33N 51°09' E 003°47'0 0.0
2016-Sep-17 09:33N 51°09' E 003°47'0 0.0
2016-Sep-17 08:33N 51°09' E 003°47'0 0.0
2016-Sep-17 07:27N 51°09' E 003°47'0 0.0
2016-Sep-17 05:27N 51°09' E 003°47'0 0.0
2016-Sep-17 04:33N 51°09' E 003°47'0 0.0
2016-Sep-17 00:33N 51°09' E 003°47'18 2.6
2016-Sep-16 17:33N 51°25' E 003°32'13 6.7
2016-Sep-16 15:33N 51°23' E 003°11'29 9.5
2016-Sep-16 12:33N 51°20' E 002°25'  

Dump ship's entire track history